Time;durP1;ratioP1;P1;durP2;ratioP2;P2;SDS_P1;SDS_P2;PMS_P1;PMS_P2;Temp;Humidity;BMP_temperature;BMP_pressure;BME280_temperature;BME280_humidity;BME280_pressure;Samples;Min_cycle;Max_cycle;Signal;HPM_P1;HPM_P2
2022/09/04 00:02:00;;;;;;;4.80;4.37;;;19.00;99.90;;;;;;5069640;28;20167;-81
2022/09/04 00:04:34;;;;;;;4.20;3.90;;;18.90;99.90;;;;;;5069553;28;20189;-80
2022/09/04 00:07:27;;;;;;;4.30;4.00;;;19.00;99.90;;;;;;5069429;28;20238;-82
2022/09/04 00:10:19;;;;;;;4.40;4.10;;;19.00;99.90;;;;;;5068134;28;20178;-82
2022/09/04 00:13:03;;;;;;;4.23;3.97;;;19.00;99.90;;;;;;5070208;28;20632;-82
2022/09/04 00:15:35;;;;;;;4.13;3.80;;;18.90;99.90;;;;;;5069247;28;20533;-81
2022/09/04 00:18:22;;;;;;;3.60;3.40;;;18.90;99.90;;;;;;5069375;28;20163;-81
2022/09/04 00:21:05;;;;;;;4.07;3.70;;;18.90;99.90;;;;;;5069260;28;20159;-80
2022/09/04 00:23:31;;;;;;;4.03;3.73;;;18.80;99.90;;;;;;5069580;28;20159;-81
2022/09/04 00:26:05;;;;;;;5.10;3.30;;;18.80;99.90;;;;;;5071162;28;20648;-80
2022/09/04 00:28:36;;;;;;;3.83;3.63;;;18.80;99.90;;;;;;5069806;28;20198;-81
2022/09/04 00:31:40;;;;;;;4.10;3.30;;;18.70;99.90;;;;;;5070304;28;20262;-82
2022/09/04 00:34:25;;;;;;;3.80;3.60;;;18.70;99.90;;;;;;5089232;28;20187;-80
2022/09/04 00:36:54;;;;;;;4.40;3.60;;;18.50;99.90;;;;;;5075117;28;20460;-81
2022/09/04 00:39:27;;;;;;;3.80;3.50;;;18.50;99.90;;;;;;5069884;28;20250;-81
2022/09/04 00:42:07;;;;;;;3.83;3.50;;;18.40;99.90;;;;;;5070228;28;20229;-81
2022/09/04 00:45:17;;;;;;;3.63;3.33;;;18.30;99.90;;;;;;5069452;28;20641;-81
2022/09/04 00:48:16;;;;;;;3.27;3.17;;;18.30;99.90;;;;;;5063483;28;20245;-81
2022/09/04 00:51:23;;;;;;;3.63;3.33;;;18.30;99.90;;;;;;5067594;28;20187;-80
2022/09/04 00:54:03;;;;;;;3.70;3.47;;;18.30;99.90;;;;;;5062844;28;20186;-81
2022/09/04 00:56:51;;;;;;;3.30;3.10;;;18.20;99.90;;;;;;5072191;28;20187;-81
2022/09/04 00:59:31;;;;;;;3.80;3.43;;;18.20;99.90;;;;;;5071181;28;20226;-81
2022/09/04 01:02:12;;;;;;;3.07;2.90;;;18.20;99.90;;;;;;5072619;28;20173;-81
2022/09/04 01:04:49;;;;;;;3.13;2.93;;;18.10;99.90;;;;;;5072780;28;20324;-81
2022/09/04 01:07:41;;;;;;;3.53;3.33;;;18.00;99.90;;;;;;5071205;28;20321;-80
2022/09/04 01:10:25;;;;;;;3.50;3.20;;;18.00;99.90;;;;;;5069992;28;20213;-81
2022/09/04 01:13:04;;;;;;;3.23;3.03;;;18.00;99.90;;;;;;5072567;28;20163;-80
2022/09/04 01:15:43;;;;;;;3.03;2.83;;;17.90;99.90;;;;;;5072520;28;20162;-81
2022/09/04 01:18:30;;;;;;;3.30;3.10;;;18.00;99.90;;;;;;5072586;28;20170;-80
2022/09/04 01:21:29;;;;;;;3.10;3.00;;;17.90;99.90;;;;;;5072552;28;20576;-81
2022/09/04 01:24:21;;;;;;;3.50;3.30;;;17.90;99.90;;;;;;5072144;28;20171;-81
2022/09/04 01:27:08;;;;;;;3.37;3.17;;;18.00;99.90;;;;;;5072099;28;20190;-80
2022/09/04 01:29:57;;;;;;;3.30;3.10;;;18.00;99.90;;;;;;5072275;28;20171;-81
2022/09/04 01:32:29;;;;;;;3.30;3.10;;;18.10;99.90;;;;;;5072158;28;20175;-81
2022/09/04 01:35:21;;;;;;;3.23;3.13;;;18.00;99.90;;;;;;5070837;28;20177;-80
2022/09/04 01:38:06;;;;;;;3.37;3.07;;;18.00;99.90;;;;;;5072191;28;20174;-81
2022/09/04 01:40:34;;;;;;;3.50;3.30;;;18.00;99.90;;;;;;5072250;28;20167;-81
2022/09/04 01:43:11;;;;;;;2.97;2.77;;;18.00;99.90;;;;;;5072648;28;20195;-80
2022/09/04 01:45:55;;;;;;;3.13;2.93;;;18.00;99.90;;;;;;5072220;28;20185;-81
2022/09/04 01:48:56;;;;;;;3.50;3.20;;;18.00;99.90;;;;;;5070598;28;20608;-80
2022/09/04 01:51:40;;;;;;;3.23;3.03;;;17.90;99.90;;;;;;5081920;28;20166;-80
2022/09/04 01:54:29;;;;;;;3.87;3.30;;;17.90;99.90;;;;;;5091037;28;20171;-80
2022/09/04 01:57:25;;;;;;;3.77;3.33;;;17.80;99.90;;;;;;5077024;28;20177;-81
2022/09/04 02:00:21;;;;;;;3.17;2.97;;;17.80;99.90;;;;;;5073558;28;20199;-81
2022/09/04 02:02:53;;;;;;;3.33;3.20;;;17.70;99.90;;;;;;5071384;28;20552;-81
2022/09/04 02:05:24;;;;;;;3.77;3.47;;;17.70;99.90;;;;;;5071647;28;20459;-80
2022/09/04 02:08:20;;;;;;;3.53;3.33;;;17.70;99.90;;;;;;5071864;28;20353;-80
2022/09/04 02:11:05;;;;;;;3.37;3.17;;;17.70;99.90;;;;;;5074199;28;20509;-81
2022/09/04 02:13:32;;;;;;;3.67;3.47;;;17.70;99.90;;;;;;5082419;28;20194;-80
2022/09/04 02:16:32;;;;;;;3.40;3.10;;;17.60;99.90;;;;;;5074714;28;20615;-81
2022/09/04 02:19:33;;;;;;;3.47;3.37;;;17.60;99.90;;;;;;5071432;28;20238;-81
2022/09/04 02:22:33;;;;;;;3.57;3.30;;;17.60;99.90;;;;;;5071069;28;20179;-80
2022/09/04 02:25:08;;;;;;;3.60;3.20;;;17.70;99.90;;;;;;5071226;28;20643;-81
2022/09/04 02:27:52;;;;;;;3.40;3.27;;;17.70;99.90;;;;;;5071122;28;20194;-81
2022/09/04 02:30:19;;;;;;;3.73;3.43;;;17.60;99.90;;;;;;5072377;28;20221;-81
2022/09/04 02:33:14;;;;;;;3.80;3.57;;;17.60;99.90;;;;;;5069911;28;20232;-81
2022/09/04 02:36:24;;;;;;;3.77;3.57;;;17.60;99.90;;;;;;5070782;28;20170;-81
2022/09/04 02:39:10;;;;;;;3.53;3.33;;;17.60;99.90;;;;;;5070778;28;20206;-81
2022/09/04 02:41:46;;;;;;;4.23;3.90;;;17.60;99.90;;;;;;5071080;28;20250;-81
2022/09/04 02:44:42;;;;;;;4.10;3.80;;;17.60;99.90;;;;;;5070589;28;20537;-81
2022/09/04 02:47:23;;;;;;;5.33;4.00;;;17.60;99.90;;;;;;5070605;28;20201;-80
2022/09/04 02:50:23;;;;;;;3.80;3.50;;;17.50;99.90;;;;;;5070827;28;20262;-81
2022/09/04 02:53:07;;;;;;;5.27;3.80;;;17.60;99.90;;;;;;5070655;28;20164;-81
2022/09/04 02:55:47;;;;;;;3.87;3.67;;;17.60;99.90;;;;;;5070583;28;21000;-81
2022/09/04 02:58:43;;;;;;;3.37;3.07;;;17.50;99.90;;;;;;5070236;28;20750;-81
2022/09/04 03:01:36;;;;;;;4.27;3.70;;;17.50;99.90;;;;;;5071171;28;20177;-81
2022/09/04 03:04:11;;;;;;;3.40;3.20;;;17.50;99.90;;;;;;5070443;28;20555;-81
2022/09/04 03:06:56;;;;;;;4.00;3.70;;;17.50;99.90;;;;;;5070205;28;20163;-81
2022/09/04 03:09:43;;;;;;;3.40;3.20;;;17.50;99.90;;;;;;5070352;28;20269;-81
2022/09/04 03:12:27;;;;;;;3.30;3.17;;;17.40;99.90;;;;;;5070233;28;20205;-81
2022/09/04 03:15:26;;;;;;;3.17;3.07;;;17.40;99.90;;;;;;5070169;28;20551;-82
2022/09/04 03:18:06;;;;;;;4.63;3.67;;;17.40;99.90;;;;;;5070062;28;20242;-82
2022/09/04 03:20:41;;;;;;;3.97;3.73;;;17.30;99.90;;;;;;5070117;28;20530;-81
2022/09/04 03:23:13;;;;;;;4.57;4.27;;;17.30;99.90;;;;;;5070328;28;20159;-81
2022/09/04 03:25:50;;;;;;;4.30;4.00;;;17.30;99.90;;;;;;5070222;28;20174;-81
2022/09/04 03:28:51;;;;;;;4.10;3.80;;;17.20;99.90;;;;;;5070368;28;20220;-81
2022/09/04 03:31:42;;;;;;;4.30;4.00;;;17.20;99.90;;;;;;5060927;28;20187;-82
2022/09/04 03:34:27;;;;;;;3.93;3.73;;;17.10;99.90;;;;;;5070282;28;20277;-81
2022/09/04 03:37:14;;;;;;;4.03;3.80;;;17.10;99.90;;;;;;5070585;28;20165;-81
2022/09/04 03:40:17;;;;;;;4.37;4.03;;;17.00;99.90;;;;;;5074148;28;20168;-81
2022/09/04 03:43:06;;;;;;;4.00;3.80;;;17.00;99.90;;;;;;5094892;28;20215;-80
2022/09/04 03:45:37;;;;;;;5.03;3.80;;;16.90;99.90;;;;;;5087769;28;20167;-81
2022/09/04 03:48:06;;;;;;;5.07;4.57;;;16.90;99.90;;;;;;5073143;28;20211;-81
2022/09/04 03:50:57;;;;;;;3.70;3.50;;;16.80;99.90;;;;;;5078470;28;20456;-80
2022/09/04 03:53:33;;;;;;;4.13;3.93;;;16.90;99.90;;;;;;5093727;28;20166;-82
2022/09/04 03:56:13;;;;;;;4.17;3.87;;;16.90;99.90;;;;;;5074717;28;20577;-82
2022/09/04 03:58:48;;;;;;;5.37;4.77;;;16.80;99.90;;;;;;5069603;28;20597;-82
2022/09/04 04:01:39;;;;;;;3.50;3.30;;;16.80;99.90;;;;;;5068683;28;20178;-81
2022/09/04 04:04:34;;;;;;;4.10;3.90;;;16.80;99.90;;;;;;5070052;28;20171;-81
2022/09/04 04:07:19;;;;;;;4.17;3.90;;;16.80;99.90;;;;;;5069768;28;20845;-81
2022/09/04 04:10:18;;;;;;;4.40;4.10;;;16.70;99.90;;;;;;5069715;28;20620;-82
2022/09/04 04:13:38;;;;;;;3.80;3.60;;;16.70;99.90;;;;;;5069749;28;20180;-81
2022/09/04 04:16:10;;;;;;;4.57;4.20;;;16.60;99.90;;;;;;5046991;28;20214;-81
2022/09/04 04:18:53;;;;;;;4.10;3.90;;;16.60;99.90;;;;;;5065716;28;20187;-81
2022/09/04 04:21:57;;;;;;;4.20;3.90;;;16.60;99.90;;;;;;5068367;28;20178;-81
2022/09/04 04:24:46;;;;;;;3.87;3.67;;;16.50;99.90;;;;;;5067053;28;20186;-81
2022/09/04 04:27:35;;;;;;;7.90;4.50;;;16.50;99.90;;;;;;5069632;28;20215;-81
2022/09/04 04:30:14;;;;;;;4.47;4.07;;;16.40;99.90;;;;;;5070537;28;20178;-81
2022/09/04 04:32:49;;;;;;;4.23;4.03;;;16.40;99.90;;;;;;5073531;28;20619;-81
2022/09/04 04:35:23;;;;;;;4.17;3.87;;;16.30;99.90;;;;;;5073273;28;20166;-80
2022/09/04 04:38:29;;;;;;;3.40;3.20;;;16.40;99.90;;;;;;5073000;28;20280;-80
2022/09/04 04:41:13;;;;;;;4.13;3.73;;;16.40;99.90;;;;;;5073048;28;20167;-81
2022/09/04 04:44:06;;;;;;;5.47;3.70;;;16.50;99.90;;;;;;5073035;28;20189;-81
2022/09/04 04:47:10;;;;;;;3.50;3.30;;;16.60;99.90;;;;;;5073019;28;20159;-81
2022/09/04 04:49:56;;;;;;;3.83;3.53;;;16.60;99.90;;;;;;5073077;28;20162;-81
2022/09/04 04:52:25;;;;;;;2.93;2.83;;;16.60;99.90;;;;;;5072823;28;20178;-81
2022/09/04 04:55:15;;;;;;;3.23;3.10;;;16.60;99.90;;;;;;5072699;28;20595;-81
2022/09/04 04:57:55;;;;;;;3.30;3.10;;;16.60;99.90;;;;;;5072461;28;20231;-81
2022/09/04 05:00:39;;;;;;;2.97;2.87;;;16.60;99.90;;;;;;5072786;28;20216;-80
2022/09/04 05:03:31;;;;;;;3.07;2.87;;;16.60;99.90;;;;;;5072995;28;20503;-81
2022/09/04 05:06:12;;;;;;;3.00;2.80;;;16.60;99.90;;;;;;5075462;28;20223;-81
2022/09/04 05:08:44;;;;;;;2.90;2.80;;;16.60;99.90;;;;;;5073326;28;20213;-81
2022/09/04 05:11:35;;;;;;;3.40;3.10;;;16.50;99.90;;;;;;5073414;28;20164;-81
2022/09/04 05:14:36;;;;;;;3.50;3.20;;;16.50;99.90;;;;;;5071591;28;20609;-80
2022/09/04 05:17:13;;;;;;;3.17;3.00;;;16.40;99.90;;;;;;5072572;28;20179;-81
2022/09/04 05:19:46;;;;;;;2.90;2.80;;;16.40;99.90;;;;;;5073896;28;20580;-82
2022/09/04 05:22:24;;;;;;;2.93;2.73;;;16.50;99.90;;;;;;5073846;28;20650;-82
2022/09/04 05:25:26;;;;;;;2.90;2.70;;;16.40;99.90;;;;;;5072019;28;20196;-81
2022/09/04 05:28:10;;;;;;;2.53;2.43;;;16.40;99.90;;;;;;5043871;28;20207;-81
2022/09/04 05:30:54;;;;;;;2.93;2.73;;;16.50;99.90;;;;;;5074808;28;20214;-81
2022/09/04 05:33:58;;;;;;;2.90;2.70;;;16.60;99.90;;;;;;5044883;28;20238;-81
2022/09/04 05:36:52;;;;;;;3.67;2.57;;;16.70;99.90;;;;;;5051692;28;20175;-81
2022/09/04 05:39:55;;;;;;;2.90;2.70;;;16.80;99.90;;;;;;5051367;28;20172;-82
2022/09/04 05:42:44;;;;;;;2.90;2.70;;;16.80;99.90;;;;;;5033285;28;20576;-81
2022/09/04 05:45:46;;;;;;;2.60;2.40;;;16.80;99.90;;;;;;5049694;28;20230;-81
2022/09/04 05:48:36;;;;;;;2.57;2.47;;;16.90;99.90;;;;;;5032427;28;20268;-82
2022/09/04 05:51:17;;;;;;;3.10;2.90;;;16.90;99.90;;;;;;5032427;28;20750;-80
2022/09/04 05:54:03;;;;;;;2.60;2.50;;;17.00;99.90;;;;;;5032483;28;20527;-81
2022/09/04 05:56:59;;;;;;;2.60;2.50;;;17.00;99.90;;;;;;5032496;28;20659;-82
2022/09/04 06:00:03;;;;;;;2.90;2.70;;;17.00;99.90;;;;;;5048901;28;20238;-82
2022/09/04 06:02:47;;;;;;;2.43;2.33;;;17.10;99.90;;;;;;5051473;28;20164;-81
2022/09/04 06:05:57;;;;;;;4.10;2.40;;;17.20;99.90;;;;;;5071425;28;20204;-80
2022/09/04 06:08:57;;;;;;;2.53;2.33;;;17.30;99.90;;;;;;5071442;28;20203;-80
2022/09/04 06:11:40;;;;;;;2.40;2.40;;;17.30;99.90;;;;;;5071785;28;20250;-81
2022/09/04 06:14:34;;;;;;;2.70;2.60;;;17.40;99.90;;;;;;5071684;28;20159;-81
2022/09/04 06:17:17;;;;;;;2.43;2.33;;;17.50;99.90;;;;;;5071366;28;20209;-80
2022/09/04 06:20:15;;;;;;;2.20;2.20;;;17.60;99.90;;;;;;5071321;28;20209;-80
2022/09/04 06:23:06;;;;;;;2.63;2.40;;;17.70;99.90;;;;;;5053244;28;20203;-81
2022/09/04 06:25:32;;;;;;;2.53;2.27;;;17.80;99.90;;;;;;5071217;28;20179;-81
2022/09/04 06:28:15;;;;;;;2.70;2.57;;;17.80;99.90;;;;;;5071182;28;20473;-82
2022/09/04 06:31:19;;;;;;;3.30;3.10;;;17.90;99.90;;;;;;5070925;28;20216;-82
2022/09/04 06:34:03;;;;;;;2.30;2.30;;;18.00;99.90;;;;;;5063345;28;20696;-82
2022/09/04 06:36:39;;;;;;;2.37;2.10;;;18.10;99.90;;;;;;5071064;28;20261;-82
2022/09/04 06:39:15;;;;;;;2.57;2.37;;;18.20;99.90;;;;;;5070627;28;20526;-82
2022/09/04 06:42:03;;;;;;;2.27;2.17;;;18.20;99.90;;;;;;5071366;28;20170;-82
2022/09/04 06:44:38;;;;;;;1.90;1.90;;;18.20;99.90;;;;;;5071361;28;20568;-82
2022/09/04 06:47:24;;;;;;;1.60;1.60;;;18.20;99.90;;;;;;5069217;28;20202;-81
2022/09/04 06:50:23;;;;;;;1.80;1.80;;;18.30;99.90;;;;;;5070818;28;20186;-81
2022/09/04 06:53:10;;;;;;;2.10;2.00;;;18.30;99.90;;;;;;5070455;28;20199;-81
2022/09/04 06:55:47;;;;;;;2.30;2.17;;;18.40;99.90;;;;;;5070658;28;20225;-81
2022/09/04 06:58:22;;;;;;;1.90;1.87;;;18.40;99.90;;;;;;5070644;28;20681;-81
2022/09/04 07:01:01;;;;;;;2.23;2.13;;;18.50;99.90;;;;;;5071456;28;20201;-81
2022/09/04 07:03:29;;;;;;;3.93;2.53;;;18.60;99.90;;;;;;5072286;28;20163;-81
2022/09/04 07:06:14;;;;;;;2.27;1.87;;;18.60;99.90;;;;;;5071817;28;20214;-81
2022/09/04 07:09:11;;;;;;;2.07;1.97;;;18.80;99.90;;;;;;5071057;28;20230;-81
2022/09/04 07:12:04;;;;;;;1.90;1.80;;;18.90;99.90;;;;;;5080116;28;20159;-81
2022/09/04 07:14:48;;;;;;;1.80;1.80;;;19.20;99.90;;;;;;5074564;28;20183;-80
2022/09/04 07:17:41;;;;;;;1.90;1.80;;;19.20;99.90;;;;;;5076803;28;20140;-82
2022/09/04 07:20:20;;;;;;;2.17;1.97;;;19.40;99.90;;;;;;5079764;28;20170;-82
2022/09/04 07:22:58;;;;;;;1.80;1.80;;;19.50;99.90;;;;;;5090802;28;20171;-81
2022/09/04 07:25:44;;;;;;;2.87;1.70;;;19.60;99.90;;;;;;5076096;28;20160;-82
2022/09/04 07:28:19;;;;;;;1.87;1.87;;;19.60;99.90;;;;;;5073306;28;20286;-81
2022/09/04 07:31:07;;;;;;;2.50;2.30;;;19.70;99.90;;;;;;5072819;28;20713;-82
2022/09/04 07:33:49;;;;;;;1.70;1.70;;;19.80;99.90;;;;;;5072508;28;20156;-81
2022/09/04 07:36:30;;;;;;;1.70;1.70;;;19.70;99.90;;;;;;5072924;28;20155;-81
2022/09/04 07:39:06;;;;;;;2.00;1.90;;;19.60;99.90;;;;;;5073739;28;20219;-81
2022/09/04 07:41:48;;;;;;;1.97;1.83;;;19.60;99.90;;;;;;5072132;28;20166;-82
2022/09/04 07:44:28;;;;;;;1.97;1.93;;;19.70;99.90;;;;;;5070678;28;20155;-81
2022/09/04 07:47:10;;;;;;;1.90;1.90;;;19.70;99.90;;;;;;5070773;28;20159;-80
2022/09/04 07:49:42;;;;;;;1.73;1.63;;;19.80;99.90;;;;;;5071268;28;20174;-83
2022/09/04 07:52:28;;;;;;;1.90;1.80;;;19.90;99.90;;;;;;5073303;28;20163;-82
2022/09/04 07:55:16;;;;;;;1.70;1.60;;;19.90;99.90;;;;;;5072249;28;20241;-81
2022/09/04 07:58:01;;;;;;;1.90;1.80;;;20.00;99.90;;;;;;5072448;28;20226;-81
2022/09/04 08:00:32;;;;;;;2.20;2.10;;;20.10;99.90;;;;;;5075915;28;20175;-81
2022/09/04 08:03:16;;;;;;;2.20;2.10;;;20.10;99.90;;;;;;5073431;28;20179;-81
2022/09/04 08:06:23;;;;;;;1.77;1.67;;;20.10;99.90;;;;;;5073063;28;20198;-83
2022/09/04 08:09:01;;;;;;;1.97;1.93;;;;;;;;;;5052868;28;20210;-84
2022/09/04 08:11:44;;;;;;;2.50;1.90;;;20.50;99.90;;;;;;5054415;28;20331;-83
2022/09/04 08:14:27;;;;;;;1.40;1.40;;;20.60;99.90;;;;;;5054594;28;20610;-83
2022/09/04 08:17:35;;;;;;;1.80;1.70;;;20.80;99.90;;;;;;5054418;28;20558;-83
2022/09/04 08:20:09;;;;;;;2.03;1.60;;;20.90;99.90;;;;;;5051785;28;20188;-83
2022/09/04 08:23:04;;;;;;;1.70;1.70;;;21.00;99.90;;;;;;5050803;28;20187;-82
2022/09/04 08:26:00;;;;;;;1.40;1.40;;;21.00;99.90;;;;;;5027246;28;20195;-84
2022/09/04 08:28:55;;;;;;;1.67;1.60;;;20.90;99.90;;;;;;5051094;28;20212;-83
2022/09/04 08:31:41;;;;;;;1.77;1.67;;;21.00;99.90;;;;;;5051349;28;20168;-82
2022/09/04 08:34:34;;;;;;;1.70;1.60;;;21.10;99.90;;;;;;5050824;28;20188;-81
2022/09/04 08:37:23;;;;;;;1.60;1.60;;;21.20;99.90;;;;;;5050581;28;20188;-81
2022/09/04 08:40:24;;;;;;;2.07;1.97;;;21.30;99.90;;;;;;5064149;28;20190;-82
2022/09/04 08:43:09;;;;;;;1.67;1.60;;;21.30;99.90;;;;;;5073224;28;20193;-81
2022/09/04 08:46:04;;;;;;;1.90;1.77;;;21.40;99.90;;;;;;5073972;28;20225;-81
2022/09/04 08:48:51;;;;;;;1.63;1.60;;;21.40;99.90;;;;;;5074614;28;20199;-82
2022/09/04 08:51:55;;;;;;;1.67;1.67;;;21.40;99.90;;;;;;5086296;28;20191;-81
2022/09/04 08:54:37;;;;;;;1.65;1.60;;;21.50;99.90;;;;;;5077773;28;20591;-81
2022/09/04 08:57:25;;;;;;;1.80;1.70;;;21.60;99.90;;;;;;5072552;28;20185;-82
2022/09/04 09:00:09;;;;;;;1.77;1.70;;;21.70;99.90;;;;;;5071975;28;20179;-81
2022/09/04 09:03:12;;;;;;;3.67;3.47;;;21.80;99.90;;;;;;5070701;28;20202;-82
2022/09/04 09:06:05;;;;;;;2.53;2.43;;;21.80;99.90;;;;;;5071648;28;20551;-81
2022/09/04 09:08:40;;;;;;;2.42;1.98;;;21.90;99.90;;;;;;5073050;28;20203;-82
2022/09/04 09:11:37;;;;;;;1.87;1.80;;;21.90;99.90;;;;;;5081307;28;20171;-82
2022/09/04 09:14:24;;;;;;;1.60;1.60;;;21.90;99.90;;;;;;5095046;28;20167;-81
2022/09/04 09:16:53;;;;;;;1.50;1.50;;;22.00;99.90;;;;;;5078744;28;20185;-83
2022/09/04 09:19:39;;;;;;;1.53;1.53;;;22.00;99.90;;;;;;5073449;28;20163;-84
2022/09/04 09:22:09;;;;;;;1.70;1.60;;;22.00;99.90;;;;;;5072978;28;20578;-82
2022/09/04 09:25:05;;;;;;;3.78;1.92;;;22.00;99.90;;;;;;5071661;28;20174;-83
2022/09/04 09:28:05;;;;;;;2.05;2.05;;;22.00;99.90;;;;;;5067815;28;20223;-82
2022/09/04 09:31:12;;;;;;;2.33;2.13;;;22.10;99.90;;;;;;5071665;28;20569;-82
2022/09/04 09:34:10;;;;;;;1.93;1.83;;;22.30;99.90;;;;;;5071348;28;20210;-82
2022/09/04 09:37:07;;;;;;;1.98;1.88;;;22.30;99.90;;;;;;5071435;28;20248;-81
2022/09/04 09:40:00;;;;;;;1.90;1.80;;;22.30;99.90;;;;;;5071063;28;20167;-81
2022/09/04 09:42:48;;;;;;;2.05;1.75;;;22.40;99.90;;;;;;5071017;28;20159;-82
2022/09/04 09:45:35;;;;;;;1.65;1.65;;;22.50;99.90;;;;;;5071037;28;20190;-82
2022/09/04 09:48:20;;;;;;;2.22;1.77;;;22.50;99.90;;;;;;5070882;28;20207;-81
2022/09/04 09:50:55;;;;;;;2.00;1.90;;;22.60;99.90;;;;;;5070976;28;20665;-82
2022/09/04 09:53:27;;;;;;;1.70;1.70;;;22.60;99.90;;;;;;5070776;28;20177;-81
2022/09/04 09:56:36;;;;;;;1.50;1.50;;;22.60;99.90;;;;;;5070817;28;20612;-82
2022/09/04 09:59:26;;;;;;;1.98;1.88;;;22.50;99.90;;;;;;5023891;28;1468373;-82
2022/09/04 10:02:29;;;;;;;1.90;1.80;;;22.60;99.90;;;;;;5072083;28;20263;-82
2022/09/04 10:05:01;;;;;;;1.90;1.88;;;22.70;99.90;;;;;;5072371;28;20163;-81
2022/09/04 10:07:55;;;;;;;1.95;1.85;;;22.80;99.90;;;;;;5074219;28;20282;-82
2022/09/04 10:10:52;;;;;;;2.47;1.67;;;22.80;99.90;;;;;;5071700;28;20171;-82
2022/09/04 10:13:39;;;;;;;1.60;1.60;;;22.80;99.90;;;;;;5071678;28;20175;-82
2022/09/04 10:16:14;;;;;;;2.40;2.00;;;22.80;99.90;;;;;;5070201;28;20221;-84
2022/09/04 10:18:58;;;;;;;1.90;1.90;;;22.90;99.90;;;;;;5073289;28;20648;-82
2022/09/04 10:21:55;;;;;;;1.80;1.70;;;22.90;99.90;;;;;;5071363;28;20170;-81
2022/09/04 10:25:09;;;;;;;2.25;1.80;;;22.90;99.90;;;;;;5071474;28;20166;-83
2022/09/04 10:27:53;;;;;;;1.83;1.80;;;23.00;99.90;;;;;;5070349;28;20614;-81
2022/09/04 10:30:27;;;;;;;2.30;1.90;;;23.00;99.90;;;;;;5071996;28;20530;-82
2022/09/04 10:33:25;;;;;;;1.80;1.80;;;23.10;99.90;;;;;;5090669;28;20455;-81
2022/09/04 10:36:29;;;;;;;1.77;1.67;;;23.10;99.90;;;;;;5070930;28;20179;-82
2022/09/04 10:41:57;;;;;;;1.80;1.70;;;23.20;99.90;;;;;;5070857;28;20692;-82
2022/09/04 10:44:32;;;;;;;1.70;1.70;;;23.20;99.90;;;;;;5070674;28;20249;-82
2022/09/04 10:47:23;;;;;;;2.38;2.28;;;23.30;99.90;;;;;;5070587;28;20159;-83
2022/09/04 10:49:55;;;;;;;2.03;1.92;;;23.30;99.90;;;;;;5070748;28;20221;-83
2022/09/04 10:53:19;;;;;;;2.10;2.10;;;23.40;99.90;;;;;;5072537;28;20186;-83
2022/09/04 10:56:00;;;;;;;1.83;1.83;;;23.50;99.90;;;;;;5049189;28;20175;-82
2022/09/04 10:58:53;;;;;;;2.15;2.00;;;23.50;99.90;;;;;;5047609;28;20764;-82
2022/09/04 11:01:54;;;;;;;1.90;1.80;;;23.60;99.90;;;;;;5047936;28;20192;-82
2022/09/04 11:04:28;;;;;;;1.65;1.63;;;23.70;99.90;;;;;;5048163;28;20156;-83
2022/09/04 11:07:28;;;;;;;1.83;1.73;;;23.90;99.90;;;;;;5031008;28;20187;-82
2022/09/04 11:10:00;;;;;;;1.60;1.60;;;24.00;99.90;;;;;;5047955;28;20182;-82
2022/09/04 11:12:40;;;;;;;1.95;1.85;;;24.10;99.90;;;;;;5047833;28;20160;-82
2022/09/04 11:15:37;;;;;;;2.28;1.85;;;24.10;99.90;;;;;;5047710;28;20164;-82
2022/09/04 11:18:02;;;;;;;1.92;1.83;;;24.20;99.90;;;;;;5047806;28;20211;-82
2022/09/04 11:21:06;;;;;;;1.65;1.65;;;24.30;99.90;;;;;;5047881;28;20211;-82
2022/09/04 11:23:50;;;;;;;2.10;2.00;;;24.30;99.90;;;;;;5048001;28;20536;-81
2022/09/04 11:26:36;;;;;;;1.98;1.90;;;24.30;99.90;;;;;;5041168;28;20660;-82
2022/09/04 11:29:02;;;;;;;2.10;2.00;;;24.30;99.90;;;;;;5028755;28;20295;-82
2022/09/04 11:32:19;;;;;;;1.95;1.85;;;24.40;99.90;;;;;;5032264;28;20252;-82
2022/09/04 11:34:55;;;;;;;2.55;2.35;;;24.40;99.90;;;;;;5034053;28;20555;-81
2022/09/04 11:37:55;;;;;;;1.80;1.80;;;24.50;99.90;;;;;;5030283;28;20171;-81
2022/09/04 11:40:58;;;;;;;2.10;2.00;;;24.70;99.90;;;;;;5030466;28;20586;-83
2022/09/04 11:44:09;;;;;;;1.80;1.80;;;24.80;99.90;;;;;;5031350;28;20183;-83
2022/09/04 11:46:46;;;;;;;1.90;1.83;;;24.90;99.90;;;;;;5030279;28;20191;-83
2022/09/04 11:49:45;;;;;;;1.60;1.60;;;24.90;99.90;;;;;;5031248;28;20559;-82
2022/09/04 11:52:30;;;;;;;1.73;1.60;;;25.00;99.90;;;;;;5033197;28;20187;-82
2022/09/04 11:55:05;;;;;;;1.85;1.75;;;25.20;99.90;;;;;;5032850;28;20584;-83
2022/09/04 11:57:50;;;;;;;1.70;1.70;;;25.30;99.60;;;;;;5034501;28;20183;-83
2022/09/04 12:00:17;;;;;;;1.70;1.60;;;25.40;98.90;;;;;;5070908;28;20163;-83
2022/09/04 12:03:25;;;;;;;1.73;1.70;;;25.80;98.90;;;;;;5070253;28;20179;-83
2022/09/04 12:06:09;;;;;;;1.48;1.48;;;25.80;99.00;;;;;;5072148;28;20230;-82
2022/09/04 12:09:00;;;;;;;2.08;1.65;;;25.90;98.50;;;;;;5070391;28;20221;-82
2022/09/04 12:11:30;;;;;;;1.67;1.55;;;25.90;98.30;;;;;;5077116;28;20197;-82
2022/09/04 12:14:33;;;;;;;1.60;1.60;;;25.80;98.60;;;;;;5081686;28;20195;-83
2022/09/04 12:17:17;;;;;;;1.67;1.60;;;25.70;98.90;;;;;;5070225;28;20175;-83
2022/09/04 12:20:07;;;;;;;1.92;1.83;;;25.60;98.10;;;;;;5070461;28;20182;-83
2022/09/04 12:22:42;;;;;;;2.58;1.55;;;25.50;98.50;;;;;;5074450;28;20164;-83
2022/09/04 12:25:19;;;;;;;1.52;1.42;;;25.50;98.30;;;;;;5070736;28;20253;-82
2022/09/04 12:27:44;;;;;;;1.40;1.40;;;25.20;98.50;;;;;;5070846;28;20231;-83
2022/09/04 12:30:24;;;;;;;1.88;1.77;;;25.10;98.70;;;;;;5071415;28;20224;-83
2022/09/04 12:33:18;;;;;;;1.67;1.58;;;25.00;98.40;;;;;;5069796;28;20155;-83
2022/09/04 12:35:56;;;;;;;1.98;1.88;;;24.80;99.50;;;;;;5070972;28;20223;-82
2022/09/04 12:38:36;;;;;;;13.85;4.28;;;24.70;99.90;;;;;;5069801;28;20217;-83
2022/09/04 12:41:25;;;;;;;9.35;3.55;;;24.50;99.90;;;;;;5071180;28;20171;-83
2022/09/04 12:44:33;;;;;;;6.07;3.20;;;24.30;99.90;;;;;;5070569;28;20237;-83
2022/09/04 12:47:12;;;;;;;4.75;2.67;;;23.90;99.90;;;;;;5066100;28;20194;-83
2022/09/04 12:49:56;;;;;;;2.85;2.28;;;23.50;99.90;;;;;;5069616;28;20704;-82
2022/09/04 12:52:25;;;;;;;3.03;2.10;;;23.20;99.90;;;;;;5075883;28;20653;-83
2022/09/04 12:55:03;;;;;;;3.45;2.47;;;22.90;99.90;;;;;;5075100;28;20641;-82
2022/09/04 12:57:37;;;;;;;2.30;2.10;;;22.80;99.90;;;;;;5075084;28;20611;-82
2022/09/04 13:00:11;;;;;;;1.93;1.90;;;22.80;99.90;;;;;;5075012;28;20167;-82
2022/09/04 13:03:11;;;;;;;2.10;2.00;;;22.70;99.90;;;;;;5077353;28;20168;-82
2022/09/04 13:06:20;;;;;;;2.30;2.20;;;22.60;99.90;;;;;;5076952;28;20562;-83
2022/09/04 13:09:04;;;;;;;2.90;2.33;;;22.40;99.90;;;;;;5050206;28;20230;-82
2022/09/04 13:11:47;;;;;;;2.27;2.17;;;22.30;99.90;;;;;;5051897;28;20187;-82
2022/09/04 13:14:38;;;;;;;2.57;2.47;;;22.40;99.90;;;;;;5068076;28;20191;-82
2022/09/04 13:17:09;;;;;;;2.30;2.20;;;22.30;99.90;;;;;;5074047;28;20670;-82
2022/09/04 13:20:13;;;;;;;2.63;2.43;;;22.30;99.90;;;;;;5073904;28;20171;-83
2022/09/04 13:23:04;;;;;;;2.13;2.03;;;22.30;99.90;;;;;;5050555;28;20194;-82
2022/09/04 13:25:51;;;;;;;2.13;2.03;;;22.30;99.90;;;;;;5050433;28;20233;-82
2022/09/04 13:28:29;;;;;;;1.60;1.60;;;22.30;99.90;;;;;;5050923;28;20653;-83
2022/09/04 13:30:58;;;;;;;1.37;1.37;;;22.30;99.90;;;;;;5050885;28;20171;-82
2022/09/04 13:33:41;;;;;;;1.40;1.40;;;22.30;99.90;;;;;;5050659;28;20226;-82
2022/09/04 13:36:18;;;;;;;1.73;1.63;;;22.40;99.90;;;;;;5033695;28;20210;-82
2022/09/04 13:39:06;;;;;;;3.30;1.60;;;22.40;99.90;;;;;;5051300;28;20188;-83
2022/09/04 13:41:50;;;;;;;1.90;1.80;;;22.40;99.90;;;;;;5051062;28;20251;-83
2022/09/04 13:44:37;;;;;;;1.70;1.70;;;22.40;99.90;;;;;;5033738;28;20218;-82
2022/09/04 13:47:21;;;;;;;2.20;2.10;;;22.30;99.90;;;;;;5051093;28;20243;-82
2022/09/04 13:49:49;;;;;;;2.10;2.00;;;22.20;99.90;;;;;;5050798;28;20536;-82
2022/09/04 13:52:29;;;;;;;2.20;2.10;;;22.10;99.90;;;;;;5054278;28;20187;-82
2022/09/04 13:55:18;;;;;;;2.40;2.30;;;22.00;99.90;;;;;;5055035;28;20172;-82
2022/09/04 13:58:09;;;;;;;2.10;2.00;;;22.00;99.90;;;;;;5057460;28;20234;-83
2022/09/04 14:00:44;;;;;;;2.30;2.20;;;22.00;99.90;;;;;;5069459;28;20203;-82
2022/09/04 14:03:24;;;;;;;2.50;2.40;;;22.00;99.90;;;;;;5071444;28;20151;-83
2022/09/04 14:05:51;;;;;;;2.60;2.40;;;22.00;99.90;;;;;;5070790;28;20171;-83
2022/09/04 14:08:17;;;;;;;2.30;2.20;;;21.90;99.90;;;;;;5072317;28;20210;-82
2022/09/04 14:11:04;;;;;;;1.87;1.87;;;21.90;99.90;;;;;;5071961;28;20254;-83
2022/09/04 14:13:33;;;;;;;2.50;1.60;;;22.00;99.90;;;;;;5069980;28;20224;-83
2022/09/04 14:16:05;;;;;;;1.60;1.50;;;22.00;99.90;;;;;;5071294;28;20171;-84
2022/09/04 14:18:51;;;;;;;1.43;1.43;;;22.00;99.90;;;;;;5071644;28;20225;-83
2022/09/04 14:21:35;;;;;;;1.30;1.20;;;22.00;99.90;;;;;;5071313;28;20178;-83
2022/09/04 14:24:16;;;;;;;4.00;1.20;;;22.00;99.90;;;;;;5069985;28;20172;-84
2022/09/04 14:26:51;;;;;;;1.70;1.60;;;22.10;99.90;;;;;;5071527;28;20250;-82
2022/09/04 14:29:50;;;;;;;1.50;1.50;;;22.20;99.90;;;;;;5071193;28;20216;-82